createdAt,value
2022-11-28T00:00:31.000Z,1017.73
2022-11-28T00:01:32.123Z,1017.78
2022-11-28T00:02:32.195Z,1017.74
2022-11-28T00:03:31.934Z,1017.76
2022-11-28T00:04:32.273Z,1017.71
2022-11-28T00:05:32.630Z,1017.75
2022-11-28T00:06:37.619Z,1017.75
2022-11-28T00:07:33.297Z,1017.82
2022-11-28T00:08:33.458Z,1017.79
2022-11-28T00:09:33.704Z,1017.75
2022-11-28T00:10:33.934Z,1017.74
2022-11-28T00:11:34.364Z,1017.77
2022-11-28T00:12:34.528Z,1017.74
2022-11-28T00:13:35.946Z,1017.75
2022-11-28T00:14:35.057Z,1017.67
2022-11-28T00:15:35.892Z,1017.73
2022-11-28T00:16:36.362Z,1017.67
2022-11-28T00:17:35.913Z,1017.70
2022-11-28T00:18:36.340Z,1017.70
2022-11-28T00:19:36.879Z,1017.69
2022-11-28T00:20:37.172Z,1017.74
2022-11-28T00:21:37.425Z,1017.68
2022-11-28T00:22:38.142Z,1017.69
2022-11-28T00:23:38.070Z,1017.64
2022-11-28T00:24:38.029Z,1017.66
2022-11-28T00:25:38.200Z,1017.65
2022-11-28T00:26:38.468Z,1017.65
2022-11-28T00:27:38.780Z,1017.65
2022-11-28T00:28:38.979Z,1017.67
2022-11-28T00:29:39.260Z,1017.70
2022-11-28T00:30:39.591Z,1017.64
2022-11-28T00:31:40.136Z,1017.60
2022-11-28T00:32:40.718Z,1017.59
2022-11-28T00:33:41.071Z,1017.58
2022-11-28T00:34:41.440Z,1017.61
2022-11-28T00:35:41.792Z,1017.52
2022-11-28T00:36:41.585Z,1017.61
2022-11-28T00:37:42.226Z,1017.56
2022-11-28T00:38:42.259Z,1017.56
2022-11-28T00:39:42.318Z,1017.57
2022-11-28T00:40:42.657Z,1017.57
2022-11-28T00:41:43.464Z,1017.58
2022-11-28T00:42:43.364Z,1017.59
2022-11-28T00:43:43.444Z,1017.53
2022-11-28T00:44:44.441Z,1017.55
2022-11-28T00:45:44.038Z,1017.48
2022-11-28T00:46:44.307Z,1017.53
2022-11-28T00:47:44.547Z,1017.56
2022-11-28T00:48:44.752Z,1017.53
2022-11-28T00:49:45.033Z,1017.54
2022-11-28T00:50:45.368Z,1017.50
2022-11-28T00:51:45.702Z,1017.52
2022-11-28T00:52:46.016Z,1017.50
2022-11-28T00:53:46.292Z,1017.49
2022-11-28T00:54:46.768Z,1017.52
2022-11-28T00:55:46.888Z,1017.46
2022-11-28T00:56:47.323Z,1017.44
2022-11-28T00:57:47.457Z,1017.46
2022-11-28T00:58:47.676Z,1017.50
2022-11-28T00:59:47.760Z,1017.46
2022-11-28T01:00:48.191Z,1017.52
2022-11-28T01:01:48.601Z,1017.44
2022-11-28T01:02:48.754Z,1017.46
2022-11-28T01:03:48.957Z,1017.48
2022-11-28T01:04:49.335Z,1017.47
2022-11-28T01:05:49.487Z,1017.43
2022-11-28T01:06:49.797Z,1017.44
2022-11-28T01:07:50.189Z,1017.42
2022-11-28T01:08:50.598Z,1017.43
2022-11-28T01:09:50.777Z,1017.39
2022-11-28T01:10:51.649Z,1017.39
2022-11-28T01:11:51.896Z,1017.40
2022-11-28T01:12:51.967Z,1017.43
2022-11-28T01:13:52.750Z,1017.41
2022-11-28T01:14:52.814Z,1017.36
2022-11-28T01:15:52.698Z,1017.37
2022-11-28T01:16:53.065Z,1017.33
2022-11-28T01:17:54.178Z,1017.38
2022-11-28T01:18:53.965Z,1017.33
2022-11-28T01:19:53.874Z,1017.33
2022-11-28T01:20:54.133Z,1017.28
2022-11-28T01:21:54.279Z,1017.31
2022-11-28T01:22:54.832Z,1017.27
2022-11-28T01:23:55.097Z,1017.24
2022-11-28T01:24:55.462Z,1017.25
2022-11-28T01:25:55.743Z,1017.27
2022-11-28T01:26:55.844Z,1017.25
2022-11-28T01:27:56.225Z,1017.27
2022-11-28T01:28:56.797Z,1017.17
2022-11-28T01:29:56.687Z,1017.24
2022-11-28T01:30:56.981Z,1017.20
2022-11-28T01:31:57.299Z,1017.19
2022-11-28T01:32:57.409Z,1017.21
2022-11-28T01:33:57.989Z,1017.16
2022-11-28T01:34:57.996Z,1017.10
2022-11-28T01:35:58.303Z,1017.16
2022-11-28T01:36:58.828Z,1017.10
2022-11-28T01:37:58.931Z,1017.14
2022-11-28T01:38:59.429Z,1017.13
2022-11-28T01:39:59.691Z,1017.15
2022-11-28T01:41:00.193Z,1017.06
2022-11-28T01:42:00.147Z,1017.10
2022-11-28T01:43:00.448Z,1017.07
2022-11-28T01:44:00.894Z,1017.02
2022-11-28T01:45:01.320Z,1017.07
2022-11-28T01:46:01.524Z,1017.04
2022-11-28T01:47:02.235Z,1017.04
2022-11-28T01:48:01.988Z,1016.98
2022-11-28T01:49:02.157Z,1016.99
2022-11-28T01:50:02.787Z,1017.06
2022-11-28T01:51:02.951Z,1016.95
2022-11-28T01:52:03.089Z,1016.98
2022-11-28T01:53:03.755Z,1016.96
2022-11-28T01:54:03.622Z,1016.89
2022-11-28T01:55:04.101Z,1016.91
2022-11-28T01:56:04.465Z,1016.80
2022-11-28T01:57:04.502Z,1016.78
2022-11-28T01:58:04.919Z,1016.74
2022-11-28T01:59:05.121Z,1016.80
2022-11-28T02:00:05.287Z,1016.72
2022-11-28T02:01:05.631Z,1016.77
2022-11-28T02:02:06.225Z,1016.71
2022-11-28T02:03:06.213Z,1016.73
2022-11-28T02:04:06.747Z,1016.74
2022-11-28T02:05:06.995Z,1016.73
2022-11-28T02:06:07.300Z,1016.73
2022-11-28T02:07:07.512Z,1016.67
2022-11-28T02:08:07.675Z,1016.70
2022-11-28T02:09:07.992Z,1016.68
2022-11-28T02:10:08.608Z,1016.64
2022-11-28T02:11:08.661Z,1016.62
2022-11-28T02:12:08.972Z,1016.69
2022-11-28T02:13:09.240Z,1016.67
2022-11-28T02:14:09.763Z,1016.64
2022-11-28T02:15:09.805Z,1016.66
2022-11-28T02:16:10.199Z,1016.65
2022-11-28T02:17:10.878Z,1016.58
2022-11-28T02:18:10.520Z,1016.61
2022-11-28T02:19:10.779Z,1016.60
2022-11-28T02:20:11.084Z,1016.55
2022-11-28T02:21:11.491Z,1016.54
2022-11-28T02:22:12.216Z,1016.57
2022-11-28T02:23:12.218Z,1016.59
2022-11-28T02:24:12.638Z,1016.52
2022-11-28T02:25:12.549Z,1016.60
2022-11-28T02:26:12.863Z,1016.52
2022-11-28T02:27:13.065Z,1016.56
2022-11-28T02:28:13.366Z,1016.58
2022-11-28T02:29:13.909Z,1016.54
2022-11-28T02:30:14.208Z,1016.55
2022-11-28T02:31:14.676Z,1016.55
2022-11-28T02:32:14.938Z,1016.62
2022-11-28T02:33:14.805Z,1016.64
2022-11-28T02:34:15.283Z,1016.62
2022-11-28T02:35:15.467Z,1016.59
2022-11-28T02:36:15.915Z,1016.56
2022-11-28T02:37:16.147Z,1016.58
2022-11-28T02:38:16.472Z,1016.66
2022-11-28T02:39:16.818Z,1016.57
2022-11-28T02:40:17.115Z,1016.58
2022-11-28T02:41:17.297Z,1016.56
2022-11-28T02:42:17.695Z,1016.60
2022-11-28T02:43:17.901Z,1016.57
2022-11-28T02:44:18.243Z,1016.60
2022-11-28T02:45:18.535Z,1016.62
2022-11-28T02:46:18.763Z,1016.59
2022-11-28T02:47:18.921Z,1016.60
2022-11-28T02:48:19.406Z,1016.54
2022-11-28T02:49:19.577Z,1016.58
2022-11-28T02:50:19.842Z,1016.59
2022-11-28T02:51:19.997Z,1016.48
2022-11-28T02:52:20.429Z,1016.59
2022-11-28T02:53:20.786Z,1016.53
2022-11-28T02:54:21.335Z,1016.54
2022-11-28T02:55:21.347Z,1016.50
2022-11-28T02:56:21.479Z,1016.58
2022-11-28T02:57:21.939Z,1016.52
2022-11-28T02:58:21.959Z,1016.50
2022-11-28T02:59:22.502Z,1016.46
2022-11-28T03:00:22.645Z,1016.47
2022-11-28T03:01:23.562Z,1016.41
2022-11-28T03:02:23.418Z,1016.46
2022-11-28T03:03:23.830Z,1016.40
2022-11-28T03:04:24.176Z,1016.37
2022-11-28T03:05:24.369Z,1016.38
2022-11-28T03:06:24.454Z,1016.33
2022-11-28T03:07:24.853Z,1016.38
2022-11-28T03:08:25.492Z,1016.35
2022-11-28T03:09:25.318Z,1016.31
2022-11-28T03:10:25.599Z,1016.32
2022-11-28T03:11:25.759Z,1016.38
2022-11-28T03:12:26.808Z,1016.33
2022-11-28T03:13:26.504Z,1016.35
2022-11-28T03:14:26.708Z,1016.28
2022-11-28T03:15:26.821Z,1016.31
2022-11-28T03:16:27.118Z,1016.34
2022-11-28T03:17:27.537Z,1016.29
2022-11-28T03:18:27.952Z,1016.23
2022-11-28T03:19:28.055Z,1016.21
2022-11-28T03:20:28.233Z,1016.18
2022-11-28T03:21:28.526Z,1016.23
2022-11-28T03:22:28.854Z,1016.17
2022-11-28T03:23:29.099Z,1016.11
2022-11-28T03:24:29.940Z,1016.11
2022-11-28T03:25:29.586Z,1016.11
2022-11-28T03:26:30.235Z,1016.14
2022-11-28T03:27:30.497Z,1016.12
2022-11-28T03:28:30.576Z,1016.14
2022-11-28T03:29:30.923Z,1016.17
2022-11-28T03:30:31.319Z,1016.13
2022-11-28T03:31:31.556Z,1016.21
2022-11-28T03:32:32.095Z,1016.06
2022-11-28T03:33:31.932Z,1016.22
2022-11-28T03:34:32.361Z,1016.28
2022-11-28T03:35:32.526Z,1016.12
2022-11-28T03:36:32.875Z,1016.13
2022-11-28T03:37:33.262Z,1016.09
2022-11-28T03:38:33.531Z,1016.15
2022-11-28T03:39:33.830Z,1016.13
2022-11-28T03:40:34.043Z,1016.12
2022-11-28T03:41:34.626Z,1016.11
2022-11-28T03:42:34.803Z,1016.14
2022-11-28T03:43:34.946Z,1016.14
2022-11-28T03:44:35.756Z,1016.09
2022-11-28T03:45:35.408Z,1016.12
2022-11-28T03:46:35.696Z,1016.07
2022-11-28T03:47:35.932Z,1016.03
2022-11-28T03:48:36.186Z,1016.04
2022-11-28T03:49:36.431Z,1016.06
2022-11-28T03:50:36.676Z,1015.99
2022-11-28T03:51:36.921Z,1016.00
2022-11-28T03:52:37.169Z,1016.05
2022-11-28T03:53:37.408Z,1015.97
2022-11-28T03:54:37.659Z,1015.99
2022-11-28T03:55:37.965Z,1015.99
2022-11-28T03:56:38.178Z,1015.97
2022-11-28T03:57:38.419Z,1015.96
2022-11-28T03:58:38.763Z,1015.93
2022-11-28T03:59:39.019Z,1015.94
2022-11-28T04:00:39.259Z,1015.98
2022-11-28T04:01:39.580Z,1015.99
2022-11-28T04:02:39.928Z,1015.98
2022-11-28T04:03:40.069Z,1015.99
2022-11-28T04:04:40.583Z,1016.00
2022-11-28T04:05:40.628Z,1015.93
2022-11-28T04:06:40.888Z,1016.03
2022-11-28T04:07:41.186Z,1015.93
2022-11-28T04:08:41.417Z,1015.90
2022-11-28T04:09:41.665Z,1015.91
2022-11-28T04:10:41.902Z,1015.87
2022-11-28T04:11:42.134Z,1015.90
2022-11-28T04:12:42.382Z,1015.91
2022-11-28T04:13:42.625Z,1015.94
2022-11-28T04:14:43.060Z,1015.96
2022-11-28T04:15:43.103Z,1015.90
2022-11-28T04:16:43.402Z,1015.91
2022-11-28T04:17:43.643Z,1015.91
2022-11-28T04:18:43.895Z,1015.89
2022-11-28T04:19:44.149Z,1015.88
2022-11-28T04:20:44.392Z,1015.86
2022-11-28T04:21:44.712Z,1015.90
2022-11-28T04:22:44.984Z,1015.89
2022-11-28T04:23:45.211Z,1015.84
2022-11-28T04:24:45.545Z,1015.87
2022-11-28T04:25:45.764Z,1015.84
2022-11-28T04:26:46.004Z,1015.80
2022-11-28T04:27:46.281Z,1015.74
2022-11-28T04:28:46.523Z,1015.71
2022-11-28T04:29:46.773Z,1015.77
2022-11-28T04:30:47.004Z,1015.67
2022-11-28T04:31:47.281Z,1015.74
2022-11-28T04:32:47.526Z,1015.77
2022-11-28T04:33:47.765Z,1015.74
2022-11-28T04:34:48.025Z,1015.80
2022-11-28T04:35:48.276Z,1015.76
2022-11-28T04:36:48.524Z,1015.77
2022-11-28T04:37:48.835Z,1015.78
2022-11-28T04:38:49.068Z,1015.75
2022-11-28T04:39:49.308Z,1015.76
2022-11-28T04:40:49.554Z,1015.79
2022-11-28T04:41:49.797Z,1015.77
2022-11-28T04:42:53.023Z,1015.72
2022-11-28T04:43:50.293Z,1015.74
2022-11-28T04:44:50.545Z,1015.69
2022-11-28T04:45:50.899Z,1015.78
2022-11-28T04:46:51.026Z,1015.71
2022-11-28T04:47:51.248Z,1015.74
2022-11-28T04:48:51.611Z,1015.70
2022-11-28T04:49:51.878Z,1015.72
2022-11-28T04:50:52.107Z,1015.69
2022-11-28T04:51:52.431Z,1015.63
2022-11-28T04:52:52.677Z,1015.62
2022-11-28T04:53:52.925Z,1015.60
2022-11-28T04:54:53.171Z,1015.68
2022-11-28T04:55:53.423Z,1015.62
2022-11-28T04:56:53.664Z,1015.64
2022-11-28T04:57:57.246Z,1015.60
2022-11-28T04:58:54.240Z,1015.58
2022-11-28T04:59:54.480Z,1015.54
2022-11-28T05:00:54.831Z,1015.56
2022-11-28T05:01:55.082Z,1015.59
2022-11-28T05:02:55.299Z,1015.58
2022-11-28T05:03:55.532Z,1015.54
2022-11-28T05:04:55.908Z,1015.51
2022-11-28T05:05:56.123Z,1015.55
2022-11-28T05:06:56.410Z,1015.59
2022-11-28T05:07:56.757Z,1015.68
2022-11-28T05:08:56.890Z,1015.63
2022-11-28T05:09:57.249Z,1015.65
2022-11-28T05:10:57.427Z,1015.66
2022-11-28T05:11:57.723Z,1015.56
2022-11-28T05:12:57.969Z,1015.68
2022-11-28T05:13:58.221Z,1015.66
2022-11-28T05:14:58.482Z,1015.61
2022-11-28T05:15:58.786Z,1015.59
2022-11-28T05:16:59.043Z,1015.65
2022-11-28T05:17:59.301Z,1015.62
2022-11-28T05:18:59.533Z,1015.62
2022-11-28T05:19:59.800Z,1015.64
2022-11-28T05:21:00.057Z,1015.65
2022-11-28T05:22:00.284Z,1015.57
2022-11-28T05:23:00.530Z,1015.64
2022-11-28T05:24:00.784Z,1015.60
2022-11-28T05:25:01.035Z,1015.55
2022-11-28T05:26:01.275Z,1015.53
2022-11-28T05:27:01.512Z,1015.54
2022-11-28T05:28:01.752Z,1015.60
2022-11-28T05:29:02.002Z,1015.56
2022-11-28T05:30:02.241Z,1015.56
2022-11-28T05:31:02.487Z,1015.56
2022-11-28T05:32:02.754Z,1015.56
2022-11-28T05:33:02.964Z,1015.49
2022-11-28T05:34:03.207Z,1015.53
2022-11-28T05:35:03.465Z,1015.55
2022-11-28T05:36:06.341Z,1015.51
2022-11-28T05:37:04.056Z,1015.47
2022-11-28T05:38:05.581Z,1015.53
2022-11-28T05:39:04.588Z,1015.54
2022-11-28T05:40:04.846Z,1015.56
2022-11-28T05:41:05.077Z,1015.51
2022-11-28T05:42:05.317Z,1015.59
2022-11-28T05:43:05.546Z,1015.55
2022-11-28T05:44:05.876Z,1015.55
2022-11-28T05:45:06.240Z,1015.54
2022-11-28T05:46:06.531Z,1015.58
2022-11-28T05:47:06.786Z,1015.51
2022-11-28T05:48:07.027Z,1015.54
2022-11-28T05:49:07.255Z,1015.45
2022-11-28T05:50:07.527Z,1015.50
2022-11-28T05:51:07.749Z,1015.52
2022-11-28T05:52:08.008Z,1015.54
2022-11-28T05:53:08.309Z,1015.54
2022-11-28T05:54:08.580Z,1015.50
2022-11-28T05:55:08.837Z,1015.49
2022-11-28T05:56:09.100Z,1015.47
2022-11-28T05:57:09.350Z,1015.51
2022-11-28T05:58:09.609Z,1015.47
2022-11-28T05:59:09.866Z,1015.49
2022-11-28T06:00:10.147Z,1015.49
2022-11-28T06:01:10.401Z,1015.44
2022-11-28T06:02:10.725Z,1015.46
2022-11-28T06:03:10.968Z,1015.46
2022-11-28T06:04:11.293Z,1015.39
2022-11-28T06:05:35.046Z,1015.45
2022-11-28T06:06:12.789Z,1015.47
2022-11-28T06:07:12.102Z,1015.44
2022-11-28T06:08:12.415Z,1015.39
2022-11-28T06:09:12.694Z,1015.43
2022-11-28T06:10:12.980Z,1015.46
2022-11-28T06:11:13.347Z,1015.48
2022-11-28T06:12:13.539Z,1015.46
2022-11-28T06:13:13.871Z,1015.43
2022-11-28T06:14:14.133Z,1015.46
2022-11-28T06:15:14.369Z,1015.46
2022-11-28T06:16:14.644Z,1015.45
2022-11-28T06:17:14.934Z,1015.42
2022-11-28T06:18:15.173Z,1015.43
2022-11-28T06:19:15.423Z,1015.39
2022-11-28T06:20:15.743Z,1015.44
2022-11-28T06:21:16.078Z,1015.41
2022-11-28T06:22:16.333Z,1015.37
2022-11-28T06:23:16.626Z,1015.40
2022-11-28T06:24:16.892Z,1015.45
2022-11-28T06:25:17.151Z,1015.35
2022-11-28T06:26:17.423Z,1015.38
2022-11-28T06:27:17.664Z,1015.36
2022-11-28T06:28:17.916Z,1015.33
2022-11-28T06:29:18.144Z,1015.38
2022-11-28T06:30:18.409Z,1015.36
2022-11-28T06:31:18.708Z,1015.36
2022-11-28T06:32:22.183Z,1015.31
2022-11-28T06:33:19.485Z,1015.35
2022-11-28T06:34:19.656Z,1015.36
2022-11-28T06:35:20.560Z,1015.29
2022-11-28T06:36:20.205Z,1015.34
2022-11-28T06:37:20.489Z,1015.35
2022-11-28T06:38:20.819Z,1015.31
2022-11-28T06:39:21.135Z,1015.34
2022-11-28T06:40:21.978Z,1015.34
2022-11-28T06:41:21.684Z,1015.33
2022-11-28T06:42:22.026Z,1015.32
2022-11-28T06:43:22.206Z,1015.33
2022-11-28T06:44:22.493Z,1015.28
2022-11-28T06:45:22.775Z,1015.28
2022-11-28T06:46:23.053Z,1015.27
2022-11-28T06:47:23.296Z,1015.27
2022-11-28T06:48:23.549Z,1015.24
2022-11-28T06:49:23.811Z,1015.24
2022-11-28T06:50:24.078Z,1015.24
2022-11-28T06:51:24.340Z,1015.19
2022-11-28T06:52:24.597Z,1015.21
2022-11-28T06:53:28.639Z,1015.16
2022-11-28T06:54:26.108Z,1015.11
2022-11-28T06:55:25.436Z,1015.13
2022-11-28T06:56:25.708Z,1015.13
2022-11-28T06:57:25.986Z,1015.17
2022-11-28T06:58:26.237Z,1015.16
2022-11-28T06:59:26.501Z,1015.19
2022-11-28T07:00:26.782Z,1015.16
2022-11-28T07:01:27.186Z,1015.20
2022-11-28T07:02:27.366Z,1015.10
2022-11-28T07:03:27.621Z,1015.10
2022-11-28T07:04:27.910Z,1015.13
2022-11-28T07:05:28.202Z,1015.12
2022-11-28T07:06:28.461Z,1015.14
2022-11-28T07:07:28.770Z,1015.07
2022-11-28T07:08:29.114Z,1015.08
2022-11-28T07:09:29.297Z,1015.05
2022-11-28T07:10:29.715Z,1014.96
2022-11-28T07:11:29.818Z,1015.01
2022-11-28T07:12:30.082Z,1015.00
2022-11-28T07:13:30.380Z,1014.92
2022-11-28T07:14:30.652Z,1014.96
2022-11-28T07:15:30.931Z,1014.95
2022-11-28T07:16:31.243Z,1014.91
2022-11-28T07:17:31.543Z,1014.93
2022-11-28T07:18:31.983Z,1014.88
2022-11-28T07:19:32.145Z,1014.80
2022-11-28T07:20:32.465Z,1014.81
2022-11-28T07:21:32.733Z,1014.88
2022-11-28T07:22:33.035Z,1014.69
2022-11-28T07:23:33.306Z,1014.74
2022-11-28T07:24:33.598Z,1014.78
2022-11-28T07:25:33.893Z,1014.81
2022-11-28T07:26:34.164Z,1014.79
2022-11-28T07:27:34.426Z,1014.90
2022-11-28T07:28:34.705Z,1014.90
2022-11-28T07:29:35.000Z,1014.99
2022-11-28T07:30:35.306Z,1015.01
2022-11-28T07:31:35.586Z,1015.00
2022-11-28T07:32:35.865Z,1014.92
2022-11-28T07:33:36.145Z,1014.92
2022-11-28T07:34:36.435Z,1014.85
2022-11-28T07:35:36.723Z,1014.79
2022-11-28T07:36:37.007Z,1014.76
2022-11-28T07:37:37.274Z,1014.74
2022-11-28T07:38:37.555Z,1014.69
2022-11-28T07:39:37.827Z,1014.74
2022-11-28T07:40:38.117Z,1014.77
2022-11-28T07:41:38.384Z,1014.85
2022-11-28T07:42:38.647Z,1014.79
2022-11-28T07:43:38.916Z,1014.85
2022-11-28T07:44:39.187Z,1014.84
2022-11-28T07:45:59.499Z,1014.87
2022-11-28T07:46:40.798Z,1014.85
2022-11-28T07:47:40.058Z,1014.84
2022-11-28T07:48:40.329Z,1014.80
2022-11-28T07:49:41.097Z,1014.75
2022-11-28T07:50:40.968Z,1014.80
2022-11-28T07:51:41.292Z,1014.82
2022-11-28T07:52:41.583Z,1014.80
2022-11-28T07:53:41.880Z,1014.86
2022-11-28T07:54:42.495Z,1014.88
2022-11-28T07:55:42.480Z,1014.92
2022-11-28T07:57:44.087Z,1014.96
2022-11-28T07:58:43.346Z,1014.85
2022-11-28T07:59:44.036Z,1014.84
2022-11-28T08:00:43.992Z,1014.86
2022-11-28T08:01:44.231Z,1014.83
2022-11-28T08:02:44.730Z,1014.92
2022-11-28T08:03:44.750Z,1014.92
2022-11-28T08:04:50.455Z,1014.96
2022-11-28T08:05:46.292Z,1014.94
2022-11-28T08:06:45.584Z,1015.01
2022-11-28T08:07:45.884Z,1014.92
2022-11-28T08:08:46.841Z,1014.91
2022-11-28T08:09:46.316Z,1014.94
2022-11-28T08:10:46.681Z,1014.94
2022-11-28T08:11:46.913Z,1014.81
2022-11-28T08:12:47.166Z,1014.93
2022-11-28T08:13:47.413Z,1014.84
2022-11-28T08:14:47.615Z,1014.84
2022-11-28T08:15:47.940Z,1014.91
2022-11-28T08:16:48.334Z,1014.89
2022-11-28T08:17:48.485Z,1014.91
2022-11-28T08:18:48.782Z,1014.90
2022-11-28T08:19:49.085Z,1014.92
2022-11-28T08:20:49.383Z,1014.94
2022-11-28T08:21:49.725Z,1014.87
2022-11-28T08:22:50.051Z,1014.87
2022-11-28T08:23:50.326Z,1014.86
2022-11-28T08:24:50.625Z,1014.83
2022-11-28T08:25:51.000Z,1014.83
2022-11-28T08:26:51.240Z,1014.84
2022-11-28T08:27:51.432Z,1014.93
2022-11-28T08:28:51.726Z,1014.84
2022-11-28T08:29:53.798Z,1014.89
2022-11-28T08:30:52.313Z,1014.89
2022-11-28T08:31:52.603Z,1014.86
2022-11-28T08:32:52.905Z,1014.86
2022-11-28T08:33:53.215Z,1014.79
2022-11-28T08:34:53.535Z,1014.83
2022-11-28T08:35:53.883Z,1014.77
2022-11-28T08:36:54.175Z,1014.78
2022-11-28T08:37:57.670Z,1014.80
2022-11-28T08:39:56.026Z,1014.82
2022-11-28T08:40:55.247Z,1014.76
2022-11-28T08:41:55.525Z,1014.86
2022-11-28T08:42:55.882Z,1014.73
2022-11-28T08:43:56.129Z,1014.85
2022-11-28T08:44:56.308Z,1014.79
2022-11-28T08:45:56.707Z,1014.81
2022-11-28T08:46:56.868Z,1014.77
2022-11-28T08:47:57.188Z,1014.74
2022-11-28T08:48:57.497Z,1014.72
2022-11-28T08:49:57.783Z,1014.70
2022-11-28T08:50:58.089Z,1014.74
2022-11-28T08:51:58.399Z,1014.70
2022-11-28T08:53:01.850Z,1014.73
2022-11-28T08:54:00.253Z,1014.67
2022-11-28T08:54:59.236Z,1014.74
2022-11-28T08:55:59.520Z,1014.72
2022-11-28T08:56:59.836Z,1014.71
2022-11-28T08:58:00.104Z,1014.66
2022-11-28T08:59:00.401Z,1014.73
2022-11-28T09:00:00.689Z,1014.60
2022-11-28T09:01:01.076Z,1014.67
2022-11-28T09:02:01.290Z,1014.65
2022-11-28T09:03:01.594Z,1014.67
2022-11-28T09:04:01.978Z,1014.75
2022-11-28T09:05:02.156Z,1014.70
2022-11-28T09:06:02.477Z,1014.69
2022-11-28T09:07:02.661Z,1014.61
2022-11-28T09:08:03.044Z,1014.65
2022-11-28T09:09:03.231Z,1014.66
2022-11-28T09:10:03.574Z,1014.65
2022-11-28T09:11:03.749Z,1014.66
2022-11-28T09:12:04.052Z,1014.64
2022-11-28T09:13:04.352Z,1014.63
2022-11-28T09:14:04.643Z,1014.71
2022-11-28T09:15:04.941Z,1014.67
2022-11-28T09:16:05.246Z,1014.65
2022-11-28T09:17:05.598Z,1014.69
2022-11-28T09:18:05.845Z,1014.75
2022-11-28T09:19:06.164Z,1014.70
2022-11-28T09:20:06.502Z,1014.71
2022-11-28T09:21:06.816Z,1014.66
2022-11-28T09:22:07.115Z,1014.67
2022-11-28T09:23:07.407Z,1014.70
2022-11-28T09:24:07.701Z,1014.70
2022-11-28T09:25:07.986Z,1014.72
2022-11-28T09:26:08.300Z,1014.82
2022-11-28T09:27:08.573Z,1014.76
2022-11-28T09:28:08.845Z,1014.76
2022-11-28T09:29:09.172Z,1014.72
2022-11-28T09:30:09.475Z,1014.72
2022-11-28T09:31:18.865Z,1014.71
2022-11-28T09:32:10.115Z,1014.67
2022-11-28T09:33:10.395Z,1014.71
2022-11-28T09:34:10.766Z,1014.71
2022-11-28T09:35:10.936Z,1014.75
2022-11-28T09:36:11.237Z,1014.78
2022-11-28T09:37:11.531Z,1014.71
2022-11-28T09:38:11.818Z,1014.64
2022-11-28T09:39:12.117Z,1014.69
2022-11-28T09:40:13.712Z,1014.63
2022-11-28T09:41:12.670Z,1014.69
2022-11-28T09:42:12.957Z,1014.66
2022-11-28T09:43:13.238Z,1014.66
2022-11-28T09:44:13.526Z,1014.60
2022-11-28T09:45:13.808Z,1014.57
2022-11-28T09:46:26.897Z,1014.55
2022-11-28T09:47:15.090Z,1014.65
2022-11-28T09:48:15.327Z,1014.57
2022-11-28T09:53:08.618Z,1014.62
2022-11-28T09:54:09.881Z,1014.58
2022-11-28T09:57:43.629Z,1014.57
2022-11-28T10:03:19.605Z,1014.39
2022-11-28T10:06:57.199Z,1014.35
2022-11-28T10:07:57.449Z,1014.25
2022-11-28T10:09:00.788Z,1014.29
2022-11-28T10:11:14.767Z,1014.31
2022-11-28T10:12:15.355Z,1014.23
2022-11-28T10:13:16.147Z,1014.20
2022-11-28T10:14:16.649Z,1014.20
2022-11-28T10:15:16.197Z,1014.13
2022-11-28T10:16:17.857Z,1014.22
2022-11-28T10:17:16.693Z,1014.10
2022-11-28T10:18:16.990Z,1014.11
2022-11-28T10:19:46.190Z,1014.13
2022-11-28T10:20:19.329Z,1014.07
2022-11-28T10:21:18.079Z,1014.06
2022-11-28T10:22:19.051Z,1014.07
2022-11-28T10:23:18.703Z,1014.12
2022-11-28T10:24:18.450Z,1014.06
2022-11-28T10:25:18.730Z,1014.08
2022-11-28T10:26:19.249Z,1014.05
2022-11-28T10:27:22.535Z,1014.13
2022-11-28T10:28:20.488Z,1014.13
2022-11-28T10:29:19.633Z,1014.08
2022-11-28T10:30:19.821Z,1014.10
2022-11-28T10:31:20.444Z,1014.12
2022-11-28T10:32:21.547Z,1014.11
2022-11-28T10:33:21.928Z,1014.09
2022-11-28T10:34:20.927Z,1014.06
2022-11-28T10:35:26.761Z,1014.11
2022-11-28T10:36:22.614Z,1014.12
2022-11-28T10:37:21.757Z,1014.08
2022-11-28T10:38:22.062Z,1014.10
2022-11-28T10:39:22.363Z,1014.09
2022-11-28T10:40:22.952Z,1014.11
2022-11-28T10:41:22.944Z,1014.07
2022-11-28T10:42:26.084Z,1014.00
2022-11-28T10:43:23.506Z,1014.02
2022-11-28T10:44:23.825Z,1013.98
2022-11-28T10:45:25.037Z,1013.98
2022-11-28T10:46:24.560Z,1014.02
2022-11-28T10:47:24.895Z,1013.94
2022-11-28T10:48:41.146Z,1013.92
2022-11-28T10:49:26.256Z,1013.94
2022-11-28T10:50:30.831Z,1014.00
2022-11-28T10:51:26.808Z,1013.92
2022-11-28T10:52:26.126Z,1014.01
2022-11-28T10:53:38.097Z,1013.93
2022-11-28T10:58:53.786Z,1013.86
2022-11-28T10:59:53.962Z,1013.85
2022-11-28T11:00:54.263Z,1013.82
2022-11-28T11:01:54.630Z,1013.77
2022-11-28T11:02:54.868Z,1013.81
2022-11-28T11:03:55.064Z,1013.87
2022-11-28T11:04:55.469Z,1013.83
2022-11-28T11:05:56.705Z,1013.80
2022-11-28T11:07:08.200Z,1013.84
2022-11-28T11:07:57.560Z,1013.80
2022-11-28T11:08:56.465Z,1013.78
2022-11-28T11:09:56.743Z,1013.80
2022-11-28T11:10:56.936Z,1013.83
2022-11-28T11:11:57.115Z,1013.74
2022-11-28T11:13:22.196Z,1013.79
2022-11-28T11:14:00.545Z,1013.80
2022-11-28T11:14:58.944Z,1013.74
2022-11-28T11:15:59.332Z,1013.76
2022-11-28T11:16:58.934Z,1013.76
2022-11-28T11:18:20.358Z,1013.81
2022-11-28T11:18:59.438Z,1013.78
2022-11-28T11:20:20.217Z,1013.79
2022-11-28T11:20:59.497Z,1013.80
2022-11-28T11:21:59.982Z,1013.84
2022-11-28T11:23:00.108Z,1013.80
2022-11-28T11:24:00.269Z,1013.82
2022-11-28T11:25:00.568Z,1013.81
2022-11-28T11:26:00.928Z,1013.76
2022-11-28T11:27:01.177Z,1013.78
2022-11-28T11:28:01.461Z,1013.76
2022-11-28T11:29:01.691Z,1013.72
2022-11-28T11:30:02.037Z,1013.69
2022-11-28T11:31:03.179Z,1013.72
2022-11-28T11:32:02.629Z,1013.64
2022-11-28T11:33:02.969Z,1013.62
2022-11-28T11:34:03.402Z,1013.72
2022-11-28T11:35:03.519Z,1013.69
2022-11-28T11:36:03.803Z,1013.64
2022-11-28T11:37:04.140Z,1013.65
2022-11-28T11:38:04.512Z,1013.64
2022-11-28T11:39:04.931Z,1013.65
2022-11-28T11:40:05.014Z,1013.68
2022-11-28T11:41:05.309Z,1013.74
2022-11-28T11:42:05.656Z,1013.67
2022-11-28T11:43:05.873Z,1013.69
2022-11-28T11:44:06.211Z,1013.70
2022-11-28T11:45:06.520Z,1013.78
2022-11-28T11:46:06.894Z,1013.69
2022-11-28T11:47:07.103Z,1013.73
2022-11-28T11:48:07.443Z,1013.70
2022-11-28T11:49:07.780Z,1013.67
2022-11-28T11:50:08.118Z,1013.70
2022-11-28T11:51:08.424Z,1013.70
2022-11-28T11:52:08.755Z,1013.62
2022-11-28T11:53:09.006Z,1013.72
2022-11-28T11:54:09.646Z,1013.62
2022-11-28T11:55:09.766Z,1013.70
2022-11-28T11:56:10.077Z,1013.63
2022-11-28T11:57:32.137Z,1013.62
2022-11-28T11:58:11.330Z,1013.73
2022-11-28T11:59:10.626Z,1013.67
2022-11-28T12:00:10.897Z,1013.66
2022-11-28T12:01:11.277Z,1013.68
2022-11-28T12:02:11.474Z,1013.60
2022-11-28T12:03:11.676Z,1013.66
2022-11-28T12:04:30.618Z,1013.66
2022-11-28T12:05:13.229Z,1013.64
2022-11-28T12:06:14.892Z,1013.63
2022-11-28T12:07:13.414Z,1013.59
2022-11-28T12:08:13.231Z,1013.60
2022-11-28T12:09:13.632Z,1013.66
2022-11-28T12:10:13.741Z,1013.64
2022-11-28T12:11:14.121Z,1013.62
2022-11-28T12:12:14.452Z,1013.55
2022-11-28T12:13:14.661Z,1013.59
2022-11-28T12:14:14.724Z,1013.57
2022-11-28T12:15:15.180Z,1013.61
2022-11-28T12:16:15.502Z,1013.58
2022-11-28T12:17:46.850Z,1013.49
2022-11-28T12:18:19.193Z,1013.53
2022-11-28T12:19:17.582Z,1013.52
2022-11-28T12:20:17.194Z,1013.52
2022-11-28T12:21:18.006Z,1013.54
2022-11-28T12:22:17.552Z,1013.51
2022-11-28T12:23:17.823Z,1013.46
2022-11-28T12:24:17.752Z,1013.50
2022-11-28T12:25:18.052Z,1013.56
2022-11-28T12:26:18.074Z,1013.59
2022-11-28T12:27:18.461Z,1013.48
2022-11-28T12:28:18.574Z,1013.49
2022-11-28T12:30:19.588Z,1013.53
2022-11-28T12:31:20.557Z,1013.56